Casper, WY

2:13 AM MDT on July 24, 2014 (GMT -0600)
Natrona County International (KCPR) Elev 5289 ft | 42.90 °N, 106.47 °W | Change Station
Active Advisory: Fire Weather Warning Active Notice: Record Report

Current weather conditions updated 20 minutes ago

Clear
Clear
79 °F
Feels Like 79 °F
N
14
Wind Variable Wind from SSW

Today is forecast to be Cooler than yesterday.

Today
High -- | Low -- °F
--% Chance of Precip.
Yesterday
High -- | Low -- °F
Precip. -- in
5:48 AM 8:34 PM
Waning Crescent, 6% visible
Pressure 29.78 in
Visibility 10.0 miles
Clouds Clear
Dew Point 39 °F
Humidity 24%
Rainfall 0.00 in
Snow Depth Not available.
UV 0 out of 12
Pollen 6.70 out of 12
Air Quality Not available.
Flu Activity Not available.
METAR KCPR 240753Z AUTO 20012KT 10SM CLR 26/04 A3006 RMK AO2 SLP084 T02610039

More Conditions Fewer Conditions

Pressure 29.78 in
Visibility 10.0 miles
Clouds Clear
Dew Point 39 °F
Humidity 24%
Rainfall 0.00 in
Snow Depth Not available.
UV 0 out of 12
Pollen 6.70 out of 12
Air Quality Not available.
Flu Activity Not available.
METAR KCPR 240753Z AUTO 20012KT 10SM CLR 26/04 A3006 RMK AO2 SLP084 T02610039

More Conditions Fewer Conditions

10-Day Weather Forecast

Almanac

Astronomy

Jul. 24, 2014 Rise Set
Actual Time 5:48 AM MDT 8:34 PM MDT
Civil Twilight 5:15 AM MDT 9:07 PM MDT
Nautical Twilight 4:33 AM MDT 9:48 PM MDT
Astronomical Twilight 3:45 AM MDT 10:36 PM MDT
Moon 3:59 AM MDT 6:50 PM MDT
Length of Visible Light 15h 51m
Length of Day
14h 45m
Tomorrow will be 1m 57s shorter.
Waning Crescent, 6% of the Moon is Illuminated
Today
Waning Crescent
Jul 26
New
Aug 3
First Quarter
Aug 10
Full
Aug 17
Last Quarter

Today's Extremes

State Highs State Lows

Community

WunderPhotos

Upload Photos

1,736,950 photos uploaded!

Nearby

Snow Depth

Station Depth Elevation
Casper Mountain 0 in 7850 ft
Sand Lake 0 in 10050 ft
Brooklyn Lake 0 in 10220 ft
Old Battle 0 in 9920 ft
Crow Creek 4 in 8330 ft

Earthquake Activity

City Distance Mag. Time & Date
No recent earthquake activity has been reported nearby.
Minimum magnitude displayed is 2.5.

Coastal Water Temperatures

Place Temperature
No Stations Reporting

Nearby Weather Stations

Station Location Temp. Heat Index Dew Point Humidity Wind Precip. Elev Updated Type
HADS NORTH PLATTE RIVER AT CASPER WY, Casper, WY 85 °F 82 °F - - North  at  - 0.00 in / hr 5100 ft 1:30 AM MDT MADIS
North of Casper, WY, Bar Nunn, WY 78.6 °F 78 °F 42 °F 27% North  at  0.0 mph 0.04 in / hr 5276 ft 2:00 AM MDT Normal
North of Rolling Hills WY, Glenrock, WY 78.5 °F 78 °F 40 °F 25% South  at  6.0 mph 0.00 in / hr 5421 ft 2:13 AM MDT Rapid Fire
RAWS CASPER MOUNTAIN WY, Casper, WY 71 °F 76 °F 37 °F 29% South  at  7 mph 0.00 in / hr 7740 ft 12:52 AM MDT MADIS

Show More Stations Show Fewer Stations